Time;durP1;ratioP1;P1;durP2;ratioP2;P2;SDS_P1;SDS_P2;PMS_P1;PMS_P2;Temp;Humidity;BMP_temperature;BMP_pressure;BME280_temperature;BME280_humidity;BME280_pressure;Samples;Min_cycle;Max_cycle;Signal;HPM_P1;HPM_P2
2022/07/17 00:02:16;;;;;;;9.43;4.60;;;16.70;99.90;;;;;;5090977;28;20882;-57
2022/07/17 00:04:42;;;;;;;8.85;4.45;;;16.50;99.90;;;;;;5090768;28;20751;-55
2022/07/17 00:07:08;;;;;;;8.60;4.38;;;16.50;99.90;;;;;;5091029;28;20879;-55
2022/07/17 00:09:33;;;;;;;10.97;5.00;;;16.40;99.90;;;;;;5090469;28;20378;-55
2022/07/17 00:11:59;;;;;;;9.70;4.37;;;16.30;99.90;;;;;;5091156;28;20382;-55
2022/07/17 00:14:25;;;;;;;10.00;4.50;;;16.40;99.90;;;;;;5084139;28;20823;-55
2022/07/17 00:16:53;;;;;;;10.88;4.30;;;16.40;99.90;;;;;;5070651;28;20395;-55
2022/07/17 00:19:20;;;;;;;9.25;4.45;;;16.50;99.90;;;;;;5074375;28;20398;-57
2022/07/17 00:21:46;;;;;;;8.30;4.50;;;16.40;99.90;;;;;;5078605;28;20438;-55
2022/07/17 00:24:12;;;;;;;9.97;4.50;;;16.30;99.90;;;;;;5074114;28;20874;-55
2022/07/17 00:26:38;;;;;;;11.60;4.63;;;16.20;99.90;;;;;;5089954;28;20431;-55
2022/07/17 00:29:04;;;;;;;9.70;4.37;;;16.20;99.90;;;;;;5087723;28;20398;-55
2022/07/17 00:31:30;;;;;;;12.00;4.90;;;16.20;99.90;;;;;;5069316;28;20783;-55
2022/07/17 00:33:56;;;;;;;9.10;5.00;;;16.10;99.90;;;;;;5071600;28;20396;-55
2022/07/17 00:36:22;;;;;;;9.00;4.60;;;16.10;99.90;;;;;;5069416;28;20425;-55
2022/07/17 00:38:47;;;;;;;9.60;4.78;;;16.00;1.00;;;;;;5077106;28;20478;-55
2022/07/17 00:41:14;;;;;;;8.53;4.40;;;16.00;1.00;;;;;;5090279;28;20379;-55
2022/07/17 00:43:40;;;;;;;9.47;4.60;;;16.00;1.00;;;;;;5083441;28;20615;-55
2022/07/17 00:46:06;;;;;;;8.75;5.00;;;16.00;1.00;;;;;;5070157;28;20844;-55
2022/07/17 00:48:32;;;;;;;10.60;4.43;;;16.00;1.00;;;;;;5074075;28;20422;-54
2022/07/17 00:50:58;;;;;;;10.20;4.70;;;16.10;1.00;;;;;;5090017;28;20457;-54
2022/07/17 00:53:23;;;;;;;10.18;4.90;;;16.00;1.00;;;;;;5085446;28;20539;-53
2022/07/17 00:55:49;;;;;;;8.38;4.60;;;16.00;1.00;;;;;;5069998;28;20374;-53
2022/07/17 00:58:21;;;;;;;8.57;4.70;;;16.00;1.00;;;;;;5070919;28;20426;-53
2022/07/17 01:00:48;;;;;;;8.50;4.60;;;16.00;1.00;;;;;;5069629;28;20866;-54
2022/07/17 01:03:15;;;;;;;9.90;4.70;;;15.90;1.00;;;;;;5087644;28;20405;-54
2022/07/17 01:05:41;;;;;;;7.78;4.40;;;15.80;1.00;;;;;;5084207;28;20442;-54
2022/07/17 01:08:06;;;;;;;8.23;4.60;;;15.80;1.00;;;;;;5069714;28;20376;-53
2022/07/17 01:10:32;;;;;;;10.52;5.30;;;15.60;1.00;;;;;;5072626;28;20390;-54
2022/07/17 01:12:58;;;;;;;12.60;5.28;;;15.50;1.00;;;;;;5090043;28;20397;-54
2022/07/17 01:15:23;;;;;;;11.93;5.30;;;15.50;40.90;;;;;;5086454;28;20457;-54
2022/07/17 01:17:49;;;;;;;10.38;5.30;;;15.40;99.90;;;;;;5069692;28;20437;-53
2022/07/17 01:20:15;;;;;;;9.60;5.50;;;15.40;61.20;;;;;;5070182;28;20790;-54
2022/07/17 01:22:46;;;;;;;9.95;5.53;;;15.30;99.90;;;;;;5088747;28;20402;-53
2022/07/17 01:25:13;;;;;;;10.13;5.47;;;15.30;99.90;;;;;;5088495;28;21020;-53
2022/07/17 01:27:40;;;;;;;13.25;6.50;;;15.30;99.90;;;;;;5068467;28;20400;-53
2022/07/17 01:30:07;;;;;;;10.02;5.82;;;15.20;99.90;;;;;;5073621;28;20401;-53
2022/07/17 01:32:40;;;;;;;11.57;5.40;;;15.20;99.90;;;;;;5076216;28;20469;-54
2022/07/17 01:35:07;;;;;;;11.60;5.50;;;15.30;99.90;;;;;;5069435;28;20368;-54
2022/07/17 01:37:33;;;;;;;10.18;5.60;;;15.30;99.90;;;;;;5068577;28;20543;-53
2022/07/17 01:39:59;;;;;;;11.20;5.55;;;15.30;99.90;;;;;;5076720;28;20386;-54
2022/07/17 01:42:26;;;;;;;10.70;5.60;;;15.20;99.90;;;;;;5087892;28;20492;-53
2022/07/17 01:44:53;;;;;;;11.18;5.63;;;15.10;99.90;;;;;;5089104;28;20397;-53
2022/07/17 01:47:19;;;;;;;12.00;6.30;;;15.10;99.90;;;;;;5088840;28;20386;-57
2022/07/17 01:49:47;;;;;;;11.20;5.90;;;15.10;99.90;;;;;;5089353;28;20897;-54
2022/07/17 01:52:13;;;;;;;11.02;6.38;;;15.10;99.90;;;;;;5089465;28;20389;-54
2022/07/17 01:54:40;;;;;;;11.98;5.40;;;15.10;99.90;;;;;;5068946;28;20384;-54
2022/07/17 01:57:06;;;;;;;13.27;5.50;;;15.10;1.00;;;;;;5069071;28;20478;-54
2022/07/17 01:59:31;;;;;;;11.68;5.50;;;15.10;1.00;;;;;;5070047;28;20794;-54
2022/07/17 02:01:57;;;;;;;10.77;6.30;;;15.10;1.00;;;;;;5069203;28;20403;-54
2022/07/17 02:04:23;;;;;;;12.50;6.27;;;15.10;1.00;;;;;;5087093;28;20398;-54
2022/07/17 02:06:48;;;;;;;13.10;6.28;;;15.10;99.90;;;;;;5089473;28;20381;-54
2022/07/17 02:09:14;;;;;;;11.02;6.20;;;15.10;99.90;;;;;;5071308;28;20488;-54
2022/07/17 02:11:39;;;;;;;13.77;5.97;;;15.00;99.90;;;;;;5068418;28;21056;-54
2022/07/17 02:14:05;;;;;;;10.83;6.23;;;15.00;99.90;;;;;;5085080;28;20389;-54
2022/07/17 02:16:31;;;;;;;13.75;6.00;;;15.10;99.90;;;;;;5088557;28;20374;-54
2022/07/17 02:18:56;;;;;;;9.98;6.20;;;15.10;99.90;;;;;;5073936;28;20760;-54
2022/07/17 02:21:22;;;;;;;11.60;6.53;;;15.00;99.90;;;;;;5068034;28;20860;-57
2022/07/17 02:23:47;;;;;;;11.93;6.10;;;14.90;1.00;;;;;;5083003;28;20390;-56
2022/07/17 02:26:13;;;;;;;10.73;5.93;;;14.80;1.00;;;;;;5079998;28;20422;-54
2022/07/17 02:28:39;;;;;;;10.80;6.50;;;14.80;1.00;;;;;;5068507;28;20391;-54
2022/07/17 02:31:04;;;;;;;11.53;6.20;;;14.70;1.00;;;;;;5076653;28;20439;-54
2022/07/17 02:33:30;;;;;;;10.73;5.90;;;14.60;7.40;;;;;;5088121;28;20430;-54
2022/07/17 02:35:55;;;;;;;10.70;6.28;;;14.60;99.10;;;;;;5082456;28;20400;-54
2022/07/17 02:38:21;;;;;;;11.07;6.40;;;14.60;96.90;;;;;;5068533;28;20376;-57
2022/07/17 02:40:47;;;;;;;10.90;6.30;;;14.50;99.90;;;;;;5073828;28;20399;-54
2022/07/17 02:43:12;;;;;;;10.27;6.65;;;14.40;99.90;;;;;;5089336;28;20498;-54
2022/07/17 02:45:38;;;;;;;11.67;7.10;;;14.40;99.90;;;;;;5087698;28;20395;-54
2022/07/17 02:48:04;;;;;;;11.53;6.60;;;14.40;99.90;;;;;;5072172;28;20380;-54
2022/07/17 02:50:30;;;;;;;12.90;7.00;;;14.40;99.90;;;;;;5074338;28;20394;-54
2022/07/17 02:52:55;;;;;;;11.80;6.87;;;14.40;99.90;;;;;;5092741;28;20414;-54
2022/07/17 02:55:21;;;;;;;10.50;6.70;;;14.40;99.90;;;;;;5073349;28;20752;-57
2022/07/17 02:57:47;;;;;;;14.05;6.70;;;14.40;37.20;;;;;;5071983;28;20540;-54
2022/07/17 03:00:15;;;;;;;12.20;6.97;;;14.50;99.90;;;;;;5086317;28;20505;-54
2022/07/17 03:02:43;;;;;;;13.55;6.75;;;14.40;99.90;;;;;;5091571;28;20673;-54
2022/07/17 03:05:09;;;;;;;11.95;6.75;;;14.30;99.90;;;;;;5075546;28;20421;-54
2022/07/17 03:07:36;;;;;;;11.32;6.50;;;14.20;99.90;;;;;;5087701;28;20394;-54
2022/07/17 03:10:03;;;;;;;10.55;6.72;;;14.20;99.90;;;;;;5076299;28;20423;-54
2022/07/17 03:12:28;;;;;;;9.50;6.18;;;14.00;1.00;;;;;;5071225;28;20384;-55
2022/07/17 03:14:54;;;;;;;14.27;7.43;;;14.00;1.00;;;;;;5086075;28;20405;-55
2022/07/17 03:17:20;;;;;;;11.10;6.40;;;13.90;99.90;;;;;;5091894;28;20406;-58
2022/07/17 03:19:46;;;;;;;12.60;7.22;;;14.00;99.90;;;;;;5089983;28;20393;-55
2022/07/17 03:22:11;;;;;;;12.17;6.70;;;13.90;99.90;;;;;;5092148;28;20422;-55
2022/07/17 03:24:37;;;;;;;10.50;6.60;;;13.80;1.00;;;;;;5076713;28;20771;-55
2022/07/17 03:27:02;;;;;;;11.70;7.30;;;13.80;99.90;;;;;;5070010;28;20408;-56
2022/07/17 03:29:28;;;;;;;11.40;7.63;;;13.80;1.00;;;;;;5085470;28;20747;-55
2022/07/17 03:31:54;;;;;;;11.40;7.50;;;13.80;1.00;;;;;;5091788;28;20382;-55
2022/07/17 03:34:19;;;;;;;11.35;7.20;;;13.70;59.60;;;;;;5076243;28;20390;-58
2022/07/17 03:36:45;;;;;;;12.32;7.80;;;13.60;99.90;;;;;;5072268;28;20402;-55
2022/07/17 03:39:11;;;;;;;10.80;7.10;;;13.60;1.00;;;;;;5085135;28;20386;-55
2022/07/17 03:41:37;;;;;;;11.52;6.97;;;13.60;11.70;;;;;;5090809;28;21008;-55
2022/07/17 03:44:02;;;;;;;11.30;6.83;;;13.50;54.40;;;;;;5078855;28;20438;-55
2022/07/17 03:46:28;;;;;;;11.85;7.05;;;13.50;99.90;;;;;;5070479;28;20471;-55
2022/07/17 03:48:54;;;;;;;11.77;7.25;;;13.40;99.90;;;;;;5082568;28;20386;-55
2022/07/17 03:51:19;;;;;;;12.97;7.63;;;13.40;1.00;;;;;;5091668;28;20389;-55
2022/07/17 03:53:45;;;;;;;12.23;7.47;;;13.40;1.00;;;;;;5090231;28;20413;-55
2022/07/17 03:56:11;;;;;;;14.17;7.20;;;13.40;1.00;;;;;;5091116;28;20447;-56
2022/07/17 03:58:36;;;;;;;11.77;7.50;;;13.40;1.00;;;;;;5081475;28;20803;-55
2022/07/17 04:01:02;;;;;;;13.18;7.80;;;13.30;99.90;;;;;;5070920;28;20398;-55
2022/07/17 04:03:28;;;;;;;14.60;7.30;;;13.40;99.90;;;;;;5071449;28;20403;-56
2022/07/17 04:05:54;;;;;;;13.45;7.70;;;13.50;99.90;;;;;;5075746;28;20394;-55
2022/07/17 04:08:19;;;;;;;12.38;7.55;;;13.50;1.00;;;;;;5091500;28;20489;-55
2022/07/17 04:10:45;;;;;;;11.93;7.10;;;13.40;3.60;;;;;;5086467;28;20445;-55
2022/07/17 04:13:11;;;;;;;11.10;6.87;;;13.50;99.90;;;;;;5070489;28;20472;-55
2022/07/17 04:15:49;;;;;;;12.18;7.25;;;13.50;1.00;;;;;;5072747;28;20478;-55
2022/07/17 04:18:15;;;;;;;11.93;7.00;;;13.60;1.00;;;;;;5091046;28;20447;-55
2022/07/17 04:20:40;;;;;;;11.95;7.40;;;13.60;1.00;;;;;;5087414;28;20442;-55
2022/07/17 04:23:06;;;;;;;19.50;7.03;;;13.60;99.90;;;;;;5090875;28;20406;-55
2022/07/17 04:25:32;;;;;;;11.47;7.20;;;13.80;50.00;;;;;;5087692;28;20940;-58
2022/07/17 04:27:58;;;;;;;11.93;7.30;;;13.80;50.90;;;;;;5069980;28;20408;-55
2022/07/17 04:30:23;;;;;;;15.90;8.47;;;13.80;99.90;;;;;;5070802;28;20415;-58
2022/07/17 04:32:49;;;;;;;15.50;7.85;;;13.80;99.90;;;;;;5090596;28;20464;-55
2022/07/17 04:35:14;;;;;;;14.40;7.10;;;14.00;99.90;;;;;;5090279;28;20386;-56
2022/07/17 04:37:40;;;;;;;11.07;6.67;;;14.10;1.00;;;;;;5069821;28;20380;-55
2022/07/17 04:40:07;;;;;;;11.00;6.95;;;14.30;99.90;;;;;;5070269;28;20733;-55
2022/07/17 04:42:32;;;;;;;12.95;6.97;;;14.50;1.00;;;;;;5087121;28;20413;-55
2022/07/17 04:44:58;;;;;;;13.60;7.80;;;14.60;99.90;;;;;;5076484;28;20486;-55
2022/07/17 04:47:24;;;;;;;12.40;7.60;;;14.70;99.90;;;;;;5070155;28;20384;-58
2022/07/17 04:49:49;;;;;;;11.40;7.00;;;14.80;99.90;;;;;;5082342;28;20386;-53
2022/07/17 04:52:15;;;;;;;11.73;7.90;;;14.90;99.90;;;;;;5090564;28;20389;-53
2022/07/17 04:54:40;;;;;;;12.45;7.63;;;15.10;25.10;;;;;;5077508;28;20586;-54
2022/07/17 04:57:06;;;;;;;11.65;7.45;;;15.20;1.00;;;;;;5070067;28;20384;-53
2022/07/17 04:59:32;;;;;;;11.73;6.90;;;15.20;99.90;;;;;;5079113;28;20394;-53
2022/07/17 05:01:57;;;;;;;10.87;7.40;;;15.40;99.90;;;;;;5090255;28;20459;-53
2022/07/17 05:04:23;;;;;;;12.95;7.45;;;16.00;1.00;;;;;;5080553;28;20396;-58
2022/07/17 05:06:49;;;;;;;10.20;6.50;;;17.30;12.00;;;;;;5069403;28;20857;-55
2022/07/17 05:09:14;;;;;;;11.50;6.30;;;18.90;99.90;;;;;;5077404;28;20469;-54
2022/07/17 05:11:40;;;;;;;11.43;7.23;;;20.10;99.90;;;;;;5086019;28;20403;-54
2022/07/17 05:14:05;;;;;;;10.40;6.50;;;21.50;99.90;;;;;;5069338;28;20429;-56
2022/07/17 05:16:31;;;;;;;10.10;5.90;;;22.90;99.90;;;;;;5070524;28;20511;-56
2022/07/17 05:18:57;;;;;;;11.00;6.35;;;24.50;99.90;;;;;;5089871;28;20382;-54
2022/07/17 05:21:22;;;;;;;11.07;6.22;;;25.20;99.90;;;;;;5088874;28;20889;-57
2022/07/17 05:23:48;;;;;;;11.47;7.57;;;25.70;99.90;;;;;;5069489;28;20779;-54
2022/07/17 05:26:14;;;;;;;13.03;6.87;;;25.80;99.90;;;;;;5069024;28;20853;-54
2022/07/17 05:28:39;;;;;;;13.47;7.77;;;26.10;99.90;;;;;;5088132;28;20390;-54
2022/07/17 05:31:05;;;;;;;11.10;7.40;;;26.10;99.90;;;;;;5090155;28;20378;-54
2022/07/17 05:33:31;;;;;;;12.30;7.60;;;26.00;99.90;;;;;;5081115;28;20508;-55
2022/07/17 05:35:57;;;;;;;11.10;7.60;;;26.40;99.90;;;;;;5069427;28;20876;-54
2022/07/17 05:38:23;;;;;;;11.50;7.07;;;27.20;99.90;;;;;;5069731;28;20384;-57
2022/07/17 05:40:48;;;;;;;12.63;6.40;;;28.20;99.90;;;;;;5069189;28;20376;-55
2022/07/17 05:43:14;;;;;;;14.07;9.10;;;28.80;99.90;;;;;;5070373;28;20434;-55
2022/07/17 05:45:40;;;;;;;13.60;8.40;;;29.20;99.90;;;;;;5080600;28;20394;-55
2022/07/17 05:48:06;;;;;;;11.85;9.00;;;29.30;99.90;;;;;;5087206;28;20397;-51
2022/07/17 05:50:33;;;;;;;10.98;9.77;;;29.20;99.90;;;;;;5081926;28;20451;-55
2022/07/17 05:52:59;;;;;;;10.40;7.70;;;29.70;99.90;;;;;;5080219;28;20397;-55
2022/07/17 05:55:25;;;;;;;12.75;7.00;;;30.20;99.90;;;;;;5079212;28;20389;-58
2022/07/17 05:57:50;;;;;;;12.63;9.50;;;30.30;99.90;;;;;;5079308;28;20402;-55
2022/07/17 06:00:16;;;;;;;11.63;7.43;;;30.70;99.90;;;;;;5080085;28;20382;-56
2022/07/17 06:02:42;;;;;;;11.37;8.47;;;31.60;99.90;;;;;;5078951;28;20411;-56
2022/07/17 06:05:08;;;;;;;10.90;8.90;;;32.20;99.90;;;;;;5078854;28;20414;-55
2022/07/17 06:07:34;;;;;;;11.45;9.25;;;31.80;99.90;;;;;;5076284;28;20508;-55
2022/07/17 06:09:59;;;;;;;12.60;10.67;;;31.60;99.90;;;;;;5069852;28;20487;-55
2022/07/17 06:12:25;;;;;;;11.70;9.60;;;31.00;99.90;;;;;;5071000;28;20435;-58
2022/07/17 06:14:50;;;;;;;11.07;9.45;;;31.50;99.90;;;;;;5079427;28;20937;-56
2022/07/17 06:17:16;;;;;;;11.37;9.20;;;31.60;99.90;;;;;;5085328;28;20382;-56
2022/07/17 06:19:42;;;;;;;11.80;10.00;;;30.70;99.90;;;;;;5081167;28;20399;-55
2022/07/17 06:22:07;;;;;;;13.80;9.55;;;29.50;99.90;;;;;;5091114;28;20462;-56
2022/07/17 06:24:33;;;;;;;11.55;8.40;;;28.60;99.90;;;;;;5082444;28;20949;-56
2022/07/17 06:26:59;;;;;;;10.83;7.73;;;28.70;99.90;;;;;;5091983;28;21103;-56
2022/07/17 06:29:25;;;;;;;9.97;7.50;;;28.60;99.90;;;;;;5087621;28;20493;-58
2022/07/17 06:31:51;;;;;;;9.85;7.30;;;28.90;99.90;;;;;;5081924;28;20408;-56
2022/07/17 06:34:17;;;;;;;11.43;8.30;;;30.20;99.90;;;;;;5095942;28;20803;-56
2022/07/17 06:36:42;;;;;;;10.37;7.27;;;30.80;99.90;;;;;;5087425;28;20412;-56
2022/07/17 06:39:08;;;;;;;10.30;7.80;;;31.00;99.90;;;;;;5086803;28;20385;-56
2022/07/17 06:41:33;;;;;;;10.65;6.85;;;31.10;99.90;;;;;;5079861;28;20407;-56
2022/07/17 06:43:59;;;;;;;10.90;7.20;;;31.70;99.90;;;;;;5091190;28;21104;-57
2022/07/17 06:46:25;;;;;;;11.53;7.40;;;30.50;99.90;;;;;;5089547;28;20420;-59
2022/07/17 06:48:51;;;;;;;9.65;7.13;;;30.60;99.90;;;;;;5087893;28;20476;-57
2022/07/17 06:51:17;;;;;;;11.65;6.60;;;31.00;99.90;;;;;;5084616;28;20400;-56
2022/07/17 06:53:43;;;;;;;10.43;7.70;;;31.10;99.90;;;;;;5087453;28;20467;-56
2022/07/17 06:56:09;;;;;;;10.50;7.70;;;31.80;99.90;;;;;;5081060;28;20437;-57
2022/07/17 06:58:35;;;;;;;11.10;7.70;;;31.30;99.90;;;;;;5091338;28;20704;-56
2022/07/17 07:01:00;;;;;;;8.88;6.57;;;31.30;99.90;;;;;;5084329;28;20484;-57
2022/07/17 07:03:26;;;;;;;12.18;8.00;;;31.40;99.90;;;;;;5082174;28;20753;-59
2022/07/17 07:05:52;;;;;;;12.10;8.00;;;31.20;99.90;;;;;;5085777;28;20390;-56
2022/07/17 07:08:18;;;;;;;10.40;7.70;;;31.10;99.90;;;;;;5084573;28;20407;-56
2022/07/17 07:10:44;;;;;;;12.00;7.80;;;32.20;99.90;;;;;;5090594;28;20405;-56
2022/07/17 07:13:09;;;;;;;9.63;6.75;;;32.10;99.90;;;;;;5090898;28;20443;-56
2022/07/17 07:15:35;;;;;;;9.40;6.30;;;32.00;99.90;;;;;;5077081;28;20411;-56
2022/07/17 07:18:01;;;;;;;9.45;6.50;;;32.60;99.90;;;;;;5084682;28;20386;-56
2022/07/17 07:20:26;;;;;;;8.50;6.20;;;32.50;99.90;;;;;;5091160;28;20398;-59
2022/07/17 07:22:52;;;;;;;10.30;6.43;;;32.20;99.90;;;;;;5087245;28;20418;-56
2022/07/17 07:25:18;;;;;;;8.30;5.65;;;31.50;99.90;;;;;;5075936;28;20403;-56
2022/07/17 07:27:43;;;;;;;11.40;6.40;;;31.00;99.90;;;;;;5075374;28;20539;-56
2022/07/17 07:30:10;;;;;;;9.60;6.57;;;31.80;99.90;;;;;;5073236;28;20435;-57
2022/07/17 07:32:37;;;;;;;9.88;8.48;;;32.80;99.90;;;;;;5075867;28;20993;-56
2022/07/17 07:35:04;;;;;;;8.40;5.88;;;33.00;99.90;;;;;;5079105;28;21231;-56
2022/07/17 07:37:29;;;;;;;7.45;3.60;;;33.40;99.90;;;;;;5080515;28;20456;-57
2022/07/17 07:39:55;;;;;;;9.00;5.57;;;32.50;99.90;;;;;;5083390;28;20481;-56
2022/07/17 07:42:21;;;;;;;8.70;3.90;;;32.80;99.90;;;;;;5078862;28;20563;-56
2022/07/17 07:44:47;;;;;;;7.40;3.37;;;34.00;99.90;;;;;;5086704;28;21136;-57
2022/07/17 07:47:13;;;;;;;10.20;3.78;;;34.20;99.90;;;;;;5073344;28;20810;-56
2022/07/17 07:49:38;;;;;;;7.47;3.70;;;34.30;99.90;;;;;;5085867;28;20921;-57
2022/07/17 07:52:04;;;;;;;8.00;3.90;;;34.10;99.90;;;;;;5087380;28;20416;-58
2022/07/17 07:54:32;;;;;;;6.80;3.20;;;33.50;99.90;;;;;;5081700;28;20524;-56
2022/07/17 07:56:57;;;;;;;8.53;3.37;;;33.60;99.90;;;;;;5076782;28;20412;-57
2022/07/17 07:59:23;;;;;;;7.77;3.57;;;33.90;99.90;;;;;;5079519;28;20494;-57
2022/07/17 08:01:49;;;;;;;10.80;3.60;;;34.20;99.90;;;;;;5082022;28;20413;-57
2022/07/17 08:04:15;;;;;;;7.10;3.67;;;33.60;99.90;;;;;;5085432;28;20868;-56
2022/07/17 08:06:41;;;;;;;7.32;3.17;;;33.10;99.90;;;;;;5090109;28;20439;-56
2022/07/17 08:09:07;;;;;;;6.82;3.10;;;33.80;99.90;;;;;;5089160;28;20466;-56
2022/07/17 08:11:32;;;;;;;7.00;3.15;;;34.00;99.90;;;;;;5083142;28;20898;-55
2022/07/17 08:13:59;;;;;;;6.63;3.00;;;33.80;99.90;;;;;;5088810;28;20395;-56
2022/07/17 08:16:25;;;;;;;6.75;2.95;;;33.30;99.90;;;;;;5090595;28;20382;-59
2022/07/17 08:18:50;;;;;;;7.88;3.95;;;33.60;99.90;;;;;;5083300;28;20401;-56
2022/07/17 08:21:16;;;;;;;6.77;3.47;;;33.30;99.90;;;;;;5080983;28;20404;-59
2022/07/17 08:23:42;;;;;;;6.60;2.83;;;33.70;99.90;;;;;;5077485;28;20415;-56
2022/07/17 08:26:08;;;;;;;7.20;3.50;;;34.20;99.90;;;;;;5079167;28;20404;-56
2022/07/17 08:28:33;;;;;;;6.27;2.97;;;34.20;99.90;;;;;;5081302;28;20829;-57
2022/07/17 08:30:59;;;;;;;7.03;2.73;;;35.10;99.90;;;;;;5087204;28;20405;-56
2022/07/17 08:33:25;;;;;;;7.60;4.10;;;35.00;99.90;;;;;;5083713;28;20403;-56
2022/07/17 08:35:51;;;;;;;7.47;5.75;;;;;;;;;;5072131;28;20392;-56
2022/07/17 08:38:17;;;;;;;7.03;3.45;;;37.10;99.90;;;;;;5072634;28;20379;-55
2022/07/17 08:40:43;;;;;;;7.93;3.00;;;37.00;99.90;;;;;;5069668;28;20935;-55
2022/07/17 08:43:10;;;;;;;7.03;3.00;;;36.50;99.90;;;;;;5071693;28;20946;-55
2022/07/17 08:45:38;;;;;;;6.28;2.70;;;36.30;99.90;;;;;;5068868;28;20391;-56
2022/07/17 08:48:05;;;;;;;8.10;4.00;;;36.40;99.90;;;;;;5070762;28;20398;-56
2022/07/17 08:50:34;;;;;;;6.70;3.28;;;36.00;99.90;;;;;;5071312;28;20388;-56
2022/07/17 08:53:01;;;;;;;7.63;3.42;;;36.70;99.90;;;;;;5087294;28;20405;-57
2022/07/17 08:55:27;;;;;;;8.10;4.30;;;37.00;99.90;;;;;;5068675;28;20408;-59
2022/07/17 08:57:53;;;;;;;7.00;4.30;;;38.40;99.90;;;;;;5082507;28;20406;-56
2022/07/17 09:00:22;;;;;;;6.20;2.60;;;38.00;99.90;;;;;;5076681;28;20403;-56
2022/07/17 09:03:01;;;;;;;6.55;2.90;;;37.00;99.90;;;;;;5073543;28;20410;-57
2022/07/17 09:05:35;;;;;;;6.30;3.00;;;37.40;99.90;;;;;;5074803;28;20393;-60
2022/07/17 09:08:02;;;;;;;6.30;2.72;;;36.90;99.90;;;;;;5075639;28;20402;-55
2022/07/17 09:10:40;;;;;;;7.40;2.60;;;36.30;99.90;;;;;;5073136;28;20411;-61
2022/07/17 09:13:29;;;;;;;7.00;2.90;;;36.70;99.90;;;;;;5084625;28;20386;-54
2022/07/17 09:16:06;;;;;;;7.53;4.30;;;37.10;99.90;;;;;;5087671;28;20432;-54
2022/07/17 09:18:41;;;;;;;6.20;2.65;;;37.60;99.90;;;;;;5084645;28;20905;-55
2022/07/17 09:21:07;;;;;;;5.93;2.83;;;37.80;99.90;;;;;;5086769;28;20437;-55
2022/07/17 09:23:34;;;;;;;6.30;2.50;;;38.00;99.90;;;;;;5078003;28;20407;-56
2022/07/17 09:26:00;;;;;;;6.30;3.10;;;37.70;99.90;;;;;;5083648;28;20969;-57
2022/07/17 09:28:25;;;;;;;6.20;2.80;;;37.50;99.90;;;;;;5087535;28;20500;-54
2022/07/17 09:30:54;;;;;;;5.63;2.50;;;37.20;99.90;;;;;;5081849;28;20469;-55
2022/07/17 09:33:27;;;;;;;5.90;2.50;;;37.70;99.90;;;;;;5079831;28;20405;-56
2022/07/17 09:35:57;;;;;;;8.25;2.85;;;37.60;99.90;;;;;;5077858;28;20400;-54
2022/07/17 09:38:37;;;;;;;6.40;2.50;;;37.90;99.90;;;;;;5073150;28;20402;-55
2022/07/17 09:41:09;;;;;;;6.60;2.67;;;38.20;99.90;;;;;;5077674;28;20440;-58
2022/07/17 09:43:57;;;;;;;5.80;2.70;;;37.60;99.90;;;;;;5074355;28;20911;-54
2022/07/17 09:46:31;;;;;;;6.22;2.78;;;36.90;99.90;;;;;;5074405;28;20392;-55
2022/07/17 09:49:03;;;;;;;5.63;2.20;;;36.10;99.90;;;;;;5070690;28;20379;-54
2022/07/17 09:51:32;;;;;;;5.80;2.20;;;36.10;99.90;;;;;;5070507;28;20473;-64
2022/07/17 09:54:00;;;;;;;5.85;2.40;;;36.60;99.90;;;;;;5076091;28;20434;-54
2022/07/17 09:56:28;;;;;;;7.30;2.80;;;37.00;99.90;;;;;;5078995;28;20431;-60
2022/07/17 09:59:00;;;;;;;6.18;2.50;;;37.30;99.90;;;;;;5077621;28;20407;-54
2022/07/17 10:01:25;;;;;;;5.77;2.50;;;37.90;99.90;;;;;;5076944;28;20752;-54
2022/07/17 10:03:53;;;;;;;7.40;2.85;;;37.50;99.90;;;;;;5075840;28;20399;-54
2022/07/17 10:06:20;;;;;;;6.90;2.63;;;37.50;99.90;;;;;;5077378;28;20399;-54
2022/07/17 10:08:46;;;;;;;6.45;2.90;;;38.30;99.90;;;;;;5089191;28;20378;-55
2022/07/17 10:11:15;;;;;;;6.13;2.83;;;38.00;99.90;;;;;;5088628;28;20916;-55
2022/07/17 10:13:43;;;;;;;7.13;2.80;;;37.50;99.90;;;;;;5083211;28;20402;-54
2022/07/17 10:16:09;;;;;;;5.50;2.20;;;36.00;99.90;;;;;;5077889;28;20779;-54
2022/07/17 10:18:35;;;;;;;6.07;2.80;;;35.70;99.90;;;;;;5075278;28;20804;-54
2022/07/17 10:21:15;;;;;;;6.87;3.10;;;36.50;99.90;;;;;;5080905;28;20415;-54
2022/07/17 10:23:53;;;;;;;6.55;2.88;;;36.90;99.90;;;;;;5076329;28;20490;-54
2022/07/17 10:26:51;;;;;;;5.88;2.78;;;36.40;99.90;;;;;;5079547;28;20405;-54
2022/07/17 10:29:30;;;;;;;6.30;2.20;;;35.90;99.90;;;;;;5075393;28;20417;-54
2022/07/17 10:31:57;;;;;;;5.85;2.20;;;36.10;99.90;;;;;;5089258;28;20413;-54
2022/07/17 10:34:44;;;;;;;7.00;2.25;;;36.20;99.90;;;;;;5090634;28;20771;-56
2022/07/17 10:37:21;;;;;;;6.13;2.00;;;36.10;99.90;;;;;;5088559;28;20468;-53
2022/07/17 10:40:06;;;;;;;6.53;3.53;;;34.50;99.90;;;;;;5087143;28;20389;-57
2022/07/17 10:42:43;;;;;;;8.35;4.35;;;33.90;99.90;;;;;;5083818;28;20426;-62
2022/07/17 10:45:14;;;;;;;6.85;4.55;;;33.60;99.90;;;;;;5090353;28;20412;-55
2022/07/17 10:47:49;;;;;;;9.23;4.90;;;32.90;99.90;;;;;;5090379;28;20397;-55
2022/07/17 10:50:17;;;;;;;7.90;5.03;;;32.10;99.90;;;;;;5089564;28;20430;-58
2022/07/17 10:52:42;;;;;;;6.97;5.30;;;31.50;99.90;;;;;;5082803;28;20409;-53
2022/07/17 10:55:21;;;;;;;8.45;5.93;;;30.90;99.90;;;;;;5088221;28;20396;-54
2022/07/17 10:57:48;;;;;;;10.43;5.65;;;30.80;99.90;;;;;;5083160;28;20406;-55
2022/07/17 11:00:15;;;;;;;7.13;5.20;;;30.60;99.90;;;;;;5086598;28;20409;-54
2022/07/17 11:02:42;;;;;;;7.32;5.03;;;30.90;99.90;;;;;;5086375;28;20870;-54
2022/07/17 11:05:12;;;;;;;7.70;4.90;;;31.20;99.90;;;;;;5089016;28;20414;-54
2022/07/17 11:08:01;;;;;;;7.20;4.88;;;31.40;99.90;;;;;;5086555;28;20439;-53
2022/07/17 11:10:28;;;;;;;6.70;4.80;;;31.90;99.90;;;;;;5086954;28;20406;-53
2022/07/17 11:13:06;;;;;;;7.53;4.03;;;32.00;99.90;;;;;;5086400;28;20494;-53
2022/07/17 11:15:45;;;;;;;7.40;5.00;;;31.70;99.90;;;;;;5084589;28;20406;-61
2022/07/17 11:18:17;;;;;;;9.02;4.70;;;31.50;99.90;;;;;;5080424;28;20410;-56
2022/07/17 11:21:09;;;;;;;6.82;4.70;;;31.20;99.90;;;;;;5086477;28;20394;-54
2022/07/17 11:23:34;;;;;;;6.73;5.20;;;31.50;99.90;;;;;;5073463;28;20425;-53
2022/07/17 11:26:06;;;;;;;6.50;5.30;;;31.30;99.90;;;;;;5085388;28;20406;-54
2022/07/17 11:28:40;;;;;;;6.80;4.90;;;31.30;99.90;;;;;;5084901;28;20414;-62
2022/07/17 11:31:23;;;;;;;9.00;5.35;;;31.80;99.90;;;;;;5083893;28;20433;-53
2022/07/17 11:33:58;;;;;;;7.30;4.57;;;31.10;99.90;;;;;;5082300;28;20465;-54
2022/07/17 11:36:32;;;;;;;7.22;4.32;;;31.60;99.90;;;;;;5084081;28;20390;-54
2022/07/17 11:39:01;;;;;;;6.97;4.70;;;31.90;99.90;;;;;;5085461;28;20878;-54
2022/07/17 11:41:41;;;;;;;7.23;5.60;;;32.00;99.90;;;;;;5081111;28;20394;-58
2022/07/17 11:44:10;;;;;;;6.50;4.40;;;32.10;99.90;;;;;;5081130;28;20417;-57
2022/07/17 11:46:37;;;;;;;8.25;5.30;;;31.60;99.90;;;;;;5074015;28;20410;-54
2022/07/17 11:49:03;;;;;;;6.80;5.10;;;31.50;99.90;;;;;;5082607;28;20399;-54
2022/07/17 11:51:41;;;;;;;7.70;5.20;;;31.80;99.90;;;;;;5082993;28;20528;-61
2022/07/17 11:54:10;;;;;;;6.90;5.47;;;31.90;99.90;;;;;;5080370;28;20539;-55
2022/07/17 11:56:35;;;;;;;6.90;5.38;;;31.80;99.90;;;;;;5078769;28;20398;-54
2022/07/17 11:59:02;;;;;;;7.28;5.70;;;31.60;99.90;;;;;;5076713;28;20463;-55
2022/07/17 12:01:39;;;;;;;8.50;5.75;;;31.20;99.90;;;;;;5080834;28;20891;-54
2022/07/17 12:04:08;;;;;;;8.75;6.40;;;31.10;99.90;;;;;;5073824;28;20444;-54
2022/07/17 12:06:33;;;;;;;7.20;5.90;;;31.40;99.90;;;;;;5094736;28;20760;-61
2022/07/17 12:08:59;;;;;;;8.43;6.07;;;31.80;99.90;;;;;;5079738;28;20398;-54
2022/07/17 12:11:24;;;;;;;7.17;5.90;;;32.30;99.90;;;;;;5087307;28;20485;-54
2022/07/17 12:13:50;;;;;;;8.35;5.72;;;32.40;99.90;;;;;;5084216;28;20390;-54
2022/07/17 12:16:29;;;;;;;7.93;5.70;;;32.50;99.90;;;;;;5090262;28;20389;-53
2022/07/17 12:19:05;;;;;;;7.68;5.70;;;32.10;99.90;;;;;;5086849;28;20503;-54
2022/07/17 12:21:46;;;;;;;7.40;5.40;;;32.10;99.90;;;;;;5084288;28;20534;-61
2022/07/17 12:24:19;;;;;;;7.72;5.43;;;32.20;99.90;;;;;;5085735;28;20405;-55
2022/07/17 12:26:44;;;;;;;6.50;4.40;;;32.20;99.90;;;;;;5088023;28;20418;-54
2022/07/17 12:29:10;;;;;;;9.10;5.20;;;31.90;99.90;;;;;;5085429;28;20460;-55
2022/07/17 12:31:36;;;;;;;9.65;5.10;;;31.90;99.90;;;;;;5088630;28;20481;-54
2022/07/17 12:34:01;;;;;;;6.68;4.60;;;31.80;99.90;;;;;;5085811;28;20425;-55
2022/07/17 12:36:27;;;;;;;8.33;5.40;;;31.80;99.90;;;;;;5088361;28;20481;-59
2022/07/17 12:38:52;;;;;;;6.70;4.50;;;31.50;99.90;;;;;;5087546;28;20420;-54
2022/07/17 12:41:18;;;;;;;7.30;5.40;;;31.60;99.90;;;;;;5078656;28;20844;-58
2022/07/17 12:43:44;;;;;;;6.30;4.47;;;31.60;99.90;;;;;;5083573;28;20409;-53
2022/07/17 12:46:10;;;;;;;8.75;5.28;;;31.40;99.90;;;;;;5076626;28;20771;-54